NCAR-RAP Real-Time Weather Data

Output produced by METARs form (10 April 2020  06:37 UTC)
found at http://weather.rap.ucar.edu/surface/
 
KGRI 100553Z AUTO 24003KT 10SM CLR M03/M11 A3024 RMK AO2 SLP254 T10281106 10078 21028 401281028 50002
KGRI 100453Z AUTO 01003KT 10SM CLR M01/M11 A3024 RMK AO2 SLP255 T10061106
KGRI 100353Z AUTO 00000KT 10SM CLR M01/M09 A3024 RMK AO2 SLP258 T10111094
KGRI 100253Z AUTO 03006KT 10SM CLR 01/M09 A3023 RMK AO2 SLP253 T00061094 53017
KGRI 100153Z AUTO 02010KT 10SM CLR 03/M09 A3021 RMK AO2 SLP245 T00281094
KGRI 100053Z 01015KT 8SM CLR 05/M09 A3019 RMK AO2 PK WND 35026/2356 SLP241 T00501094
KGRI 092353Z 01019G27KT 10SM CLR 08/M08 A3018 RMK AO2 PK WND 01028/2324 SLP236 T00781083 10128 20078 53014
KGRI 092253Z 33017G25KT 10SM CLR 09/M09 A3016 RMK AO2 PK WND 34037/2238 SLP229 T00941094
KGRI 092153Z 35021G33KT 10SM CLR 11/M09 A3014 RMK AO2 PK WND 34037/2108 SLP222 T01061094
KGRI 092053Z 35025G36KT 10SM CLR 12/M11 A3013 RMK AO2 PK WND 36036/2026 SLP217 T01171111 55005
KGRI 091953Z 33024G34KT 10SM CLR 13/M12 A3013 RMK AO2 PK WND 34040/1936 SLP215 T01281122
KGRI 091853Z 33025G32KT 10SM CLR 12/M09 A3015 RMK AO2 PK WND 34042/1812 SLP219 T01221094
KGRI 091753Z 33026G38KT 10SM CLR 12/M08 A3015 RMK AO2 PK WND 33038/1740 SLP220 T01221078 10128 20000 58001
KGRI 091653Z 34019G29KT 10SM CLR 11/M06 A3016 RMK AO2 PK WND 32035/1554 SLP224 T01111056
KGRI 091553Z 31023G31KT 10SM OVC100 10/M06 A3016 RMK AO2 PK WND 31031/1551 SLP223 T01001061
KGRI 091453Z 30012KT 10SM OVC100 08/M04 A3015 RMK AO2 SLP222 T00781044 51008
KGRI 091353Z 30010KT 10SM SCT110 06/M04 A3015 RMK AO2 SLP222 T00561039
KGRI 091253Z 28008KT 10SM CLR 02/M04 A3014 RMK AO2 SLP218 T00171044
KGRI 091153Z 26008KT 10SM CLR 00/M05 A3013 RMK AO2 SLP214 T00001050 10050 21017 53003
KGRI 091053Z AUTO 26007KT 10SM CLR M01/M05 A3011 RMK AO2 SLP208 T10111050
KGRI 090953Z AUTO 31006KT 10SM CLR M01/M04 A3012 RMK AO2 SLP209 T10061044
KGRI 090853Z AUTO 26005KT 10SM CLR 00/M04 A3012 RMK AO2 SLP208 T00001044 51008
KGRI 090753Z AUTO 35009KT 10SM CLR 02/M04 A3010 RMK AO2 SLP201 T00171039